Time;durP1;ratioP1;P1;durP2;ratioP2;P2;SDS_P1;SDS_P2;PMS_P1;PMS_P2;Temp;Humidity;BMP_temperature;BMP_pressure;BME280_temperature;BME280_humidity;BME280_pressure;Samples;Min_cycle;Max_cycle;Signal;HPM_P1;HPM_P2
2024/03/21 00:02:46;;;;;;;13.73;7.20;;;;;;;;;;5004167;28;20213;-85
2024/03/21 00:05:50;;;;;;;10.50;7.20;;;;;;;;;;5014230;28;20178;-85
2024/03/21 00:08:54;;;;;;;12.40;8.13;;;;;;;;;;4991568;28;20524;-86
2024/03/21 00:11:59;;;;;;;14.27;7.17;;;;;;;;;;5003326;28;20233;-85
2024/03/21 00:15:03;;;;;;;13.13;8.17;;;;;;;;;;4992071;28;20182;-85
2024/03/21 00:18:08;;;;;;;10.83;7.93;;;;;;;;;;5014162;28;20174;-85
2024/03/21 00:21:12;;;;;;;12.20;7.67;;;;;;;;;;5004413;28;20178;-85
2024/03/21 00:24:17;;;;;;;10.57;7.63;;;;;;;;;;5003223;28;20186;-86
2024/03/21 00:27:21;;;;;;;11.23;7.80;;;;;;;;;;5004439;28;20214;-84
2024/03/21 00:30:25;;;;;;;13.23;7.77;;;;;;;;;;5003828;28;20182;-86
2024/03/21 00:33:31;;;;;;;11.10;7.70;;;;;;;;;;5003825;28;20686;-85
2024/03/21 00:36:35;;;;;;;10.20;7.90;;;;;;;;;;4991567;28;20186;-85
2024/03/21 00:39:42;;;;;;;10.30;7.70;;;;;;;;;;5003892;28;20186;-86
2024/03/21 00:42:46;;;;;;;12.50;7.33;;;;;;;;;;4998510;28;20567;-85
2024/03/21 00:45:50;;;;;;;11.43;7.47;;;;;;;;;;4988421;28;20632;-85
2024/03/21 00:48:54;;;;;;;10.17;7.53;;;;;;;;;;4999855;28;20205;-85
2024/03/21 00:51:58;;;;;;;10.73;6.90;;;;;;;;;;5010180;28;20217;-84
2024/03/21 00:55:03;;;;;;;9.93;7.17;;;;;;;;;;4999096;28;20182;-85
2024/03/21 00:58:07;;;;;;;13.73;8.27;;;;;;;;;;4999637;28;20551;-84
2024/03/21 01:01:11;;;;;;;9.97;6.77;;;;;;;;;;5010502;28;20182;-86
2024/03/21 01:04:15;;;;;;;10.53;7.60;;;;;;;;;;4999472;28;20647;-85
2024/03/21 01:07:20;;;;;;;12.00;8.03;;;;;;;;;;5010061;28;20210;-85
2024/03/21 01:10:25;;;;;;;14.67;7.53;;;;;;;;;;4998905;28;20187;-84
2024/03/21 01:13:29;;;;;;;13.83;8.60;;;;;;;;;;5009145;28;20225;-84
2024/03/21 01:16:34;;;;;;;16.20;8.20;;;;;;;;;;4999822;28;20182;-84
2024/03/21 01:19:39;;;;;;;13.33;8.40;;;;;;;;;;5009894;28;20190;-84
2024/03/21 01:22:43;;;;;;;11.83;8.23;;;;;;;;;;4999730;28;20568;-84
2024/03/21 01:25:47;;;;;;;13.33;8.13;;;;;;;;;;4999122;28;20631;-84
2024/03/21 01:28:52;;;;;;;11.20;8.43;;;;;;;;;;5009132;28;20210;-85
2024/03/21 01:31:57;;;;;;;12.63;8.07;;;;;;;;;;5009137;28;20222;-84
2024/03/21 01:35:01;;;;;;;11.50;8.10;;;;;;;;;;4998505;28;20182;-84
2024/03/21 01:38:05;;;;;;;13.23;7.67;;;;;;;;;;4997633;28;20182;-85
2024/03/21 01:41:11;;;;;;;12.73;8.90;;;;;;;;;;4997930;28;20186;-84
2024/03/21 01:44:17;;;;;;;11.70;8.10;;;;;;;;;;4998368;28;20190;-84
2024/03/21 01:47:22;;;;;;;13.57;8.60;;;;;;;;;;4998737;28;20206;-84
2024/03/21 01:50:28;;;;;;;16.10;10.67;;;;;;;;;;4998688;28;20635;-84
2024/03/21 01:53:34;;;;;;;15.03;10.23;;;;;;;;;;4997135;28;20221;-84
2024/03/21 01:56:40;;;;;;;13.93;9.10;;;;;;;;;;5008679;28;20647;-84
2024/03/21 01:59:44;;;;;;;16.37;9.47;;;;;;;;;;5008304;28;20624;-84
2024/03/21 02:02:48;;;;;;;14.67;8.73;;;;;;;;;;4997062;28;20217;-84
2024/03/21 02:05:52;;;;;;;18.23;9.50;;;;;;;;;;4998152;28;20182;-84
2024/03/21 02:08:58;;;;;;;21.50;10.07;;;;;;;;;;4997805;28;20209;-84
2024/03/21 02:12:07;;;;;;;19.80;9.70;;;;;;;;;;5007637;28;20575;-84
2024/03/21 02:15:11;;;;;;;14.57;8.90;;;;;;;;;;5010611;28;20183;-84
2024/03/21 02:18:16;;;;;;;15.43;8.63;;;;;;;;;;4996935;28;20178;-85
2024/03/21 02:24:43;;;;;;;12.70;9.23;;;;;;;;;;5008742;28;20178;-85
2024/03/21 02:27:47;;;;;;;15.80;9.33;;;;;;;;;;5007977;28;20206;-84
2024/03/21 02:30:52;;;;;;;15.37;9.30;;;;;;;;;;4997496;28;20190;-85
2024/03/21 02:33:56;;;;;;;14.80;8.73;;;;;;;;;;4997476;28;20186;-84
2024/03/21 02:37:00;;;;;;;14.27;8.27;;;;;;;;;;5007731;28;20182;-85
2024/03/21 02:40:05;;;;;;;11.87;7.90;;;;;;;;;;5007956;28;20186;-84
2024/03/21 02:43:09;;;;;;;12.53;8.63;;;;;;;;;;5007472;28;20221;-85
2024/03/21 02:46:13;;;;;;;11.40;7.90;;;;;;;;;;4996750;28;20182;-85
2024/03/21 02:49:17;;;;;;;11.50;8.43;;;;;;;;;;5007883;28;20210;-85
2024/03/21 02:52:22;;;;;;;15.60;9.37;;;;;;;;;;4996671;28;20214;-84
2024/03/21 02:55:26;;;;;;;13.03;8.40;;;;;;;;;;4996908;28;20542;-84
2024/03/21 02:58:30;;;;;;;17.00;8.40;;;;;;;;;;4997020;28;20182;-85
2024/03/21 03:01:34;;;;;;;14.13;7.77;;;;;;;;;;4997213;28;20186;-85
2024/03/21 03:04:39;;;;;;;13.67;8.50;;;;;;;;;;4996886;28;20522;-84
2024/03/21 03:07:43;;;;;;;12.77;8.00;;;;;;;;;;4996665;28;20213;-85
2024/03/21 03:10:47;;;;;;;10.03;7.47;;;;;;;;;;4985074;28;20186;-84
2024/03/21 03:13:51;;;;;;;11.13;7.27;;;;;;;;;;4995893;28;20635;-85
2024/03/21 03:16:55;;;;;;;12.67;7.57;;;;;;;;;;4996000;28;20182;-85
2024/03/21 03:19:59;;;;;;;10.97;7.70;;;;;;;;;;4996012;28;20178;-84
2024/03/21 03:23:03;;;;;;;10.33;7.63;;;;;;;;;;4996321;28;20214;-84
2024/03/21 03:26:07;;;;;;;10.70;7.67;;;;;;;;;;5006885;28;20178;-86
2024/03/21 03:29:11;;;;;;;13.23;8.47;;;;;;;;;;5006904;28;20213;-85
2024/03/21 03:32:16;;;;;;;11.13;7.83;;;;;;;;;;4995424;28;20226;-84
2024/03/21 03:35:40;;;;;;;10.37;8.07;;;;;;;;;;4996741;28;20190;-84
2024/03/21 03:38:45;;;;;;;11.27;7.60;;;;;;;;;;4997072;28;20501;-84
2024/03/21 03:41:49;;;;;;;12.30;7.83;;;;;;;;;;5007404;28;20217;-84
2024/03/21 03:44:53;;;;;;;10.83;8.03;;;;;;;;;;5007111;28;20182;-84
2024/03/21 03:47:57;;;;;;;11.87;8.20;;;;;;;;;;4996796;28;20214;-84
2024/03/21 03:51:02;;;;;;;10.53;7.73;;;;;;;;;;4996653;28;20529;-84
2024/03/21 03:54:06;;;;;;;9.87;7.90;;;;;;;;;;4995756;28;20186;-84
2024/03/21 03:57:10;;;;;;;11.57;7.70;;;;;;;;;;4996404;28;20186;-84
2024/03/21 04:00:14;;;;;;;12.67;8.33;;;;;;;;;;4996124;28;20636;-84
2024/03/21 04:03:18;;;;;;;11.13;8.00;;;;;;;;;;4984405;28;20225;-84
2024/03/21 04:06:22;;;;;;;10.67;7.80;;;;;;;;;;5006696;28;20186;-84
2024/03/21 04:09:27;;;;;;;11.43;7.60;;;;;;;;;;4996901;28;20214;-84
2024/03/21 04:12:31;;;;;;;11.03;7.90;;;;;;;;;;4996421;28;20576;-84
2024/03/21 04:15:35;;;;;;;10.00;7.00;;;;;;;;;;5005663;28;20186;-84
2024/03/21 04:18:39;;;;;;;9.27;7.00;;;;;;;;;;4987989;28;20178;-84
2024/03/21 04:21:43;;;;;;;10.60;6.83;;;;;;;;;;5001058;28;20217;-84
2024/03/21 04:24:47;;;;;;;10.33;7.23;;;;;;;;;;5010431;28;20663;-84
2024/03/21 04:27:52;;;;;;;9.37;7.20;;;;;;;;;;4998985;28;20214;-84
2024/03/21 04:30:55;;;;;;;10.33;6.77;;;;;;;;;;4999856;28;20178;-84
2024/03/21 04:34:00;;;;;;;9.87;6.87;;;;;;;;;;4999080;28;20182;-84
2024/03/21 04:37:06;;;;;;;8.40;6.43;;;;;;;;;;5010350;28;20186;-83
2024/03/21 04:40:11;;;;;;;8.37;6.33;;;;;;;;;;4999745;28;20182;-83
2024/03/21 04:43:15;;;;;;;11.20;6.50;;;;;;;;;;4998573;28;20694;-83
2024/03/21 04:46:19;;;;;;;6.90;6.20;;;;;;;;;;5009770;28;20643;-83
2024/03/21 04:49:24;;;;;;;10.67;6.57;;;;;;;;;;5009809;28;20210;-84
2024/03/21 04:52:28;;;;;;;10.10;6.53;;;;;;;;;;4999138;28;20221;-83
2024/03/21 04:55:35;;;;;;;9.13;6.40;;;;;;;;;;5009605;28;20178;-83
2024/03/21 04:58:39;;;;;;;10.47;6.03;;;;;;;;;;5009735;28;20182;-83
2024/03/21 05:01:45;;;;;;;7.33;5.47;;;;;;;;;;4998388;28;20687;-83
2024/03/21 05:04:49;;;;;;;10.53;5.77;;;;;;;;;;5009522;28;20190;-83
2024/03/21 05:07:53;;;;;;;7.60;5.90;;;;;;;;;;4998815;28;20186;-84
2024/03/21 05:10:57;;;;;;;10.57;7.13;;;;;;;;;;4998599;28;20178;-84
2024/03/21 05:14:01;;;;;;;9.07;6.07;;;;;;;;;;5009244;28;20174;-83
2024/03/21 05:17:06;;;;;;;8.90;6.47;;;;;;;;;;4998333;28;20186;-84
2024/03/21 05:20:10;;;;;;;9.80;6.70;;;;;;;;;;4998678;28;20555;-84
2024/03/21 05:23:15;;;;;;;10.10;6.57;;;;;;;;;;4997651;28;20586;-83
2024/03/21 05:26:18;;;;;;;9.37;6.53;;;;;;;;;;4998562;28;20189;-83
2024/03/21 05:29:23;;;;;;;8.37;6.43;;;;;;;;;;5008948;28;20214;-84
2024/03/21 05:32:27;;;;;;;9.10;6.83;;;;;;;;;;4997818;28;20225;-82
2024/03/21 05:35:31;;;;;;;8.87;6.33;;;;;;;;;;4998019;28;20186;-83
2024/03/21 05:38:35;;;;;;;9.43;6.50;;;;;;;;;;5008921;28;20183;-83
2024/03/21 05:41:40;;;;;;;8.47;6.20;;;;;;;;;;4999003;28;20221;-83
2024/03/21 05:44:44;;;;;;;9.10;6.17;;;;;;;;;;5010094;28;20186;-83
2024/03/21 05:47:48;;;;;;;10.33;6.57;;;;;;;;;;4999092;28;20186;-84
2024/03/21 05:50:53;;;;;;;9.37;5.90;;;;;;;;;;4998840;28;20174;-83
2024/03/21 05:53:57;;;;;;;8.30;5.97;;;;;;;;;;4986278;28;20624;-84
2024/03/21 05:57:02;;;;;;;14.93;7.10;;;;;;;;;;4997789;28;20186;-85
2024/03/21 06:00:10;;;;;;;8.97;6.33;;;;;;;;;;4987280;28;20182;-83
2024/03/21 06:03:14;;;;;;;9.50;6.93;;;;;;;;;;4997957;28;20587;-85
2024/03/21 06:06:28;;;;;;;9.80;6.17;;;;;;;;;;5008412;28;20182;-85
2024/03/21 06:09:51;;;;;;;7.90;6.17;;;;;;;;;;4986469;28;20210;-82
2024/03/21 06:12:59;;;;;;;6.90;6.00;;;;;;;;;;4986366;28;20230;-84
2024/03/21 06:16:04;;;;;;;8.03;6.27;;;;;;;;;;4997329;28;20182;-83
2024/03/21 06:19:08;;;;;;;14.33;6.93;;;;;;;;;;5008362;28;20512;-83
2024/03/21 06:22:18;;;;;;;9.27;7.13;;;;;;;;;;5006877;28;20695;-83
2024/03/21 06:26:10;;;;;;;10.90;7.73;;;;;;;;;;4998614;28;20202;-85
2024/03/21 06:30:21;;;;;;;12.93;7.43;;;;;;;;;;5002716;28;20210;-83
2024/03/21 06:33:29;;;;;;;10.60;8.23;;;;;;;;;;4987209;28;20218;-84
2024/03/21 06:36:37;;;;;;;10.10;7.10;;;;;;;;;;4985295;28;20186;-85
2024/03/21 06:39:43;;;;;;;8.67;6.63;;;;;;;;;;4986783;28;20179;-85
2024/03/21 06:42:48;;;;;;;8.43;6.47;;;;;;;;;;4997433;28;20214;-85
2024/03/21 06:45:55;;;;;;;8.33;6.40;;;;;;;;;;5009186;28;20186;-84
2024/03/21 06:48:59;;;;;;;11.40;6.60;;;;;;;;;;4986029;28;20209;-84
2024/03/21 06:52:04;;;;;;;9.13;6.60;;;;;;;;;;4986220;28;20584;-84
2024/03/21 07:01:39;;;;;;;11.57;8.50;;;;;;;;;;4778574;30;20221;-85
2024/03/21 07:04:49;;;;;;;12.90;9.90;;;;;;;;;;4776197;30;20186;-86
2024/03/21 07:08:01;;;;;;;10.10;6.00;;;;;;;;;;4764846;30;20195;-86
2024/03/21 07:11:08;;;;;;;12.27;8.57;;;;;;;;;;4771379;30;20565;-86
2024/03/21 07:14:15;;;;;;;7.73;6.30;;;;;;;;;;4774640;30;20190;-84
2024/03/21 07:17:19;;;;;;;6.90;5.33;;;;;;;;;;4764399;30;20194;-84
2024/03/21 07:20:23;;;;;;;8.67;5.17;;;;;;;;;;4774785;30;20217;-83
2024/03/21 07:23:28;;;;;;;7.40;4.93;;;;;;;;;;4763456;30;20194;-83
2024/03/21 07:26:32;;;;;;;7.43;4.47;;;;;;;;;;4774185;30;20194;-83
2024/03/21 07:29:36;;;;;;;6.30;4.83;;;;;;;;;;4774310;30;20238;-84
2024/03/21 07:32:40;;;;;;;7.97;4.70;;;;;;;;;;4763955;30;20190;-82
2024/03/21 07:39:24;;;;;;;5.53;3.83;;;;;;;;;;4773185;30;20187;-86
2024/03/21 07:42:28;;;;;;;6.20;3.57;;;;;;;;;;4774283;30;20190;-85
2024/03/21 07:45:32;;;;;;;6.20;3.93;;;;;;;;;;4783855;30;20198;-85
2024/03/21 07:48:36;;;;;;;4.90;4.40;;;;;;;;;;4774107;30;20190;-86
2024/03/21 07:51:41;;;;;;;5.03;4.37;;;;;;;;;;4776709;30;20190;-85
2024/03/21 07:54:45;;;;;;;5.47;4.57;;;;;;;;;;4777180;30;20195;-85
2024/03/21 07:57:49;;;;;;;14.60;9.47;;;;;;;;;;4776667;30;20186;-86
2024/03/21 08:00:53;;;;;;;9.17;5.53;;;;;;;;;;4776476;30;20225;-82
2024/03/21 08:04:01;;;;;;;9.63;4.20;;;;;;;;;;4776398;30;20190;-82
2024/03/21 08:07:05;;;;;;;8.60;4.80;;;;;;;;;;4776356;30;20190;-83
2024/03/21 08:10:09;;;;;;;7.67;4.50;;;;;;;;;;4765459;30;20238;-82
2024/03/21 08:13:16;;;;;;;4.27;3.37;;;;;;;;;;4777288;30;20645;-83
2024/03/21 08:16:21;;;;;;;4.20;3.50;;;;;;;;;;4777642;30;20194;-85
2024/03/21 08:19:25;;;;;;;7.60;4.20;;;;;;;;;;4777531;30;20195;-85
2024/03/21 08:22:29;;;;;;;5.47;4.27;;;;;;;;;;4777713;30;20194;-85
2024/03/21 08:25:35;;;;;;;8.13;4.07;;;;;;;;;;4776293;30;20199;-85
2024/03/21 08:28:39;;;;;;;8.20;3.90;;;;;;;;;;4777194;30;20190;-83
2024/03/21 08:31:43;;;;;;;6.17;3.80;;;;;;;;;;4786456;30;20191;-83
2024/03/21 08:34:48;;;;;;;12.70;6.63;;;;;;;;;;4776790;30;20182;-83
2024/03/21 08:37:52;;;;;;;6.60;4.70;;;;;;;;;;4776494;30;20186;-83
2024/03/21 08:40:56;;;;;;;6.03;3.87;;;;;;;;;;4775642;30;20226;-86
2024/03/21 08:44:00;;;;;;;5.10;4.17;;;;;;;;;;4776420;30;20190;-85
2024/03/21 08:47:05;;;;;;;4.40;3.70;;;;;;;;;;4766819;30;20194;-85
2024/03/21 08:50:09;;;;;;;6.83;3.40;;;;;;;;;;4776274;30;20234;-85
2024/03/21 08:53:15;;;;;;;6.73;3.13;;;;;;;;;;4776356;30;20198;-85
2024/03/21 08:56:19;;;;;;;6.33;3.30;;;;;;;;;;4766925;30;20190;-86
2024/03/21 08:59:23;;;;;;;6.93;3.70;;;;;;;;;;4776158;30;20190;-85
2024/03/21 09:02:27;;;;;;;6.03;3.37;;;;;;;;;;4785732;29;20213;-85
2024/03/21 09:05:31;;;;;;;4.93;3.70;;;;;;;;;;4776955;30;20194;-83
2024/03/21 09:08:36;;;;;;;4.93;3.90;;;;;;;;;;4776973;30;20190;-85
2024/03/21 09:11:40;;;;;;;5.63;3.60;;;;;;;;;;4786198;30;20190;-85
2024/03/21 09:14:44;;;;;;;6.43;3.67;;;;;;;;;;4776446;30;20190;-85
2024/03/21 09:17:49;;;;;;;5.23;3.60;;;;;;;;;;4775882;30;20186;-86
2024/03/21 09:20:56;;;;;;;5.20;4.00;;;;;;;;;;4777409;30;20222;-86
2024/03/21 09:23:59;;;;;;;3.87;3.20;;;;;;;;;;4776779;30;20652;-85
2024/03/21 09:27:04;;;;;;;4.87;3.80;;;;;;;;;;4776448;30;20190;-85
2024/03/21 09:30:09;;;;;;;4.57;3.37;;;;;;;;;;4776056;30;20238;-85
2024/03/21 09:33:13;;;;;;;7.03;5.30;;;;;;;;;;4776347;30;20194;-85
2024/03/21 09:36:17;;;;;;;6.13;3.90;;;;;;;;;;4767468;30;20190;-85
2024/03/21 09:39:21;;;;;;;5.37;3.40;;;;;;;;;;4776817;30;20529;-85
2024/03/21 09:42:25;;;;;;;5.60;3.53;;;;;;;;;;4776809;30;20194;-85
2024/03/21 09:45:30;;;;;;;6.37;3.43;;;;;;;;;;4775106;30;20190;-86
2024/03/21 09:48:34;;;;;;;5.77;3.60;;;;;;;;;;4765378;30;20653;-83
2024/03/21 09:51:40;;;;;;;3.80;3.10;;;;;;;;;;4776396;30;20183;-83
2024/03/21 09:54:45;;;;;;;6.40;3.53;;;;;;;;;;4776934;30;20641;-83
2024/03/21 09:57:50;;;;;;;4.83;3.50;;;;;;;;;;4774637;30;20190;-84
2024/03/21 10:00:56;;;;;;;5.67;3.30;;;;;;;;;;4775691;30;20238;-83
2024/03/21 10:04:00;;;;;;;4.60;2.80;;;;;;;;;;4775163;30;20182;-83
2024/03/21 10:07:18;;;;;;;3.77;2.83;;;;;;;;;;4774523;30;20190;-84
2024/03/21 10:10:25;;;;;;;4.50;2.70;;;;;;;;;;4775212;30;20238;-85
2024/03/21 10:13:29;;;;;;;3.20;2.63;;;;;;;;;;4773516;30;20194;-85
2024/03/21 10:16:33;;;;;;;3.00;2.70;;;;;;;;;;4774265;30;20194;-83
2024/03/21 10:19:38;;;;;;;5.67;3.10;;;;;;;;;;4775017;30;20230;-84
2024/03/21 10:22:46;;;;;;;5.20;3.20;;;;;;;;;;4774300;30;20190;-85
2024/03/21 10:25:50;;;;;;;3.93;2.60;;;;;;;;;;4763796;30;20546;-83
2024/03/21 10:28:56;;;;;;;3.80;2.60;;;;;;;;;;4784893;30;20194;-83
2024/03/21 10:32:00;;;;;;;5.23;2.93;;;;;;;;;;4774093;30;20661;-83
2024/03/21 10:35:07;;;;;;;4.63;2.63;;;;;;;;;;4763712;30;20534;-83
2024/03/21 10:38:15;;;;;;;5.63;3.00;;;;;;;;;;4775062;30;20198;-84
2024/03/21 10:41:27;;;;;;;5.73;2.70;;;;;;;;;;4763944;30;20218;-83
2024/03/21 10:44:31;;;;;;;4.43;2.70;;;;;;;;;;4774926;30;20194;-84
2024/03/21 10:47:45;;;;;;;2.87;2.40;;;;;;;;;;4774886;30;20190;-83
2024/03/21 10:50:49;;;;;;;5.47;2.37;;;;;;;;;;4774208;30;20238;-84
2024/03/21 10:53:55;;;;;;;3.83;2.73;;;;;;;;;;4774265;30;20190;-84
2024/03/21 10:57:00;;;;;;;3.50;2.70;;;;;;;;;;4773190;30;20190;-84
2024/03/21 11:00:10;;;;;;;3.77;2.43;;;;;;;;;;4773878;30;20221;-83
2024/03/21 11:03:16;;;;;;;4.10;3.00;;;;;;;;;;4773497;30;20178;-83
2024/03/21 11:06:22;;;;;;;5.57;3.00;;;;;;;;;;4773504;30;20194;-83
2024/03/21 11:09:26;;;;;;;4.23;2.90;;;;;;;;;;4773634;30;20198;-85
2024/03/21 11:12:30;;;;;;;4.57;3.03;;;;;;;;;;4764162;30;20187;-83
2024/03/21 11:15:35;;;;;;;3.63;2.80;;;;;;;;;;4774295;30;20191;-84
2024/03/21 11:18:40;;;;;;;3.27;2.53;;;;;;;;;;4774477;30;20194;-84
2024/03/21 11:21:46;;;;;;;3.80;2.60;;;;;;;;;;4773808;30;20186;-85
2024/03/21 11:24:50;;;;;;;5.37;3.03;;;;;;;;;;4773509;30;20186;-84
2024/03/21 11:27:56;;;;;;;3.10;2.63;;;;;;;;;;4763832;30;20186;-83
2024/03/21 11:31:02;;;;;;;7.60;2.77;;;;;;;;;;4773811;30;20233;-83
2024/03/21 11:34:06;;;;;;;4.27;2.87;;;;;;;;;;4773725;30;20186;-83
2024/03/21 11:37:14;;;;;;;4.20;2.30;;;;;;;;;;4773204;30;20194;-84
2024/03/21 11:40:18;;;;;;;4.03;2.70;;;;;;;;;;4774589;30;20226;-84
2024/03/21 11:43:24;;;;;;;3.53;2.57;;;;;;;;;;4773641;30;20195;-84
2024/03/21 11:46:28;;;;;;;5.63;3.00;;;;;;;;;;4763043;30;20190;-83
2024/03/21 11:49:32;;;;;;;8.20;3.00;;;;;;;;;;4774842;30;20229;-83
2024/03/21 11:52:36;;;;;;;4.40;3.00;;;;;;;;;;4774384;30;20190;-85
2024/03/21 11:55:41;;;;;;;6.00;3.43;;;;;;;;;;4764007;30;20199;-84
2024/03/21 11:58:45;;;;;;;5.20;3.67;;;;;;;;;;4775412;30;20186;-85
2024/03/21 12:01:49;;;;;;;6.70;3.43;;;;;;;;;;4775296;30;20206;-85
2024/03/21 12:05:21;;;;;;;5.83;3.43;;;;;;;;;;4775115;30;20186;-85
2024/03/21 12:08:33;;;;;;;4.80;3.80;;;;;;;;;;4784452;30;20550;-85
2024/03/21 12:11:40;;;;;;;9.80;3.83;;;;;;;;;;4775091;30;20214;-85
2024/03/21 12:14:45;;;;;;;4.73;3.50;;;;;;;;;;4774757;30;20198;-84
2024/03/21 12:17:49;;;;;;;6.53;3.87;;;;;;;;;;4764035;30;20638;-84
2024/03/21 12:20:53;;;;;;;5.33;3.93;;;;;;;;;;4773945;30;20226;-85
2024/03/21 12:23:57;;;;;;;4.93;4.00;;;;;;;;;;4774557;30;20190;-84
2024/03/21 12:27:02;;;;;;;5.07;4.07;;;;;;;;;;4773234;30;20195;-86
2024/03/21 12:30:07;;;;;;;4.67;3.70;;;;;;;;;;4773145;30;20233;-85
2024/03/21 12:33:11;;;;;;;4.60;4.10;;;;;;;;;;4773792;30;20191;-85
2024/03/21 12:36:16;;;;;;;4.83;3.77;;;;;;;;;;4762608;30;20194;-85
2024/03/21 12:39:20;;;;;;;6.07;3.97;;;;;;;;;;4776687;30;20194;-85
2024/03/21 12:42:24;;;;;;;5.63;3.97;;;;;;;;;;4777008;30;20186;-85
2024/03/21 12:45:29;;;;;;;5.23;3.90;;;;;;;;;;4776706;30;20193;-86
2024/03/21 12:48:35;;;;;;;5.53;3.53;;;;;;;;;;4776519;30;20565;-85
2024/03/21 12:51:39;;;;;;;5.03;3.37;;;;;;;;;;4764850;30;20565;-85
2024/03/21 12:54:43;;;;;;;8.07;4.10;;;;;;;;;;4785411;30;20186;-86
2024/03/21 12:57:47;;;;;;;4.73;3.70;;;;;;;;;;4775533;30;20637;-85
2024/03/21 13:00:51;;;;;;;5.93;3.60;;;;;;;;;;4775089;30;20238;-85
2024/03/21 13:03:57;;;;;;;6.13;4.40;;;;;;;;;;4775549;30;20229;-86
2024/03/21 13:07:03;;;;;;;4.33;3.70;;;;;;;;;;4766715;30;20191;-85
2024/03/21 13:10:07;;;;;;;5.20;3.90;;;;;;;;;;4776896;30;20581;-85
2024/03/21 13:13:12;;;;;;;5.67;3.40;;;;;;;;;;4774718;30;20202;-87
2024/03/21 13:16:16;;;;;;;6.00;4.53;;;;;;;;;;4765736;30;20190;-84
2024/03/21 13:19:22;;;;;;;4.50;3.83;;;;;;;;;;4776754;30;20194;-84
2024/03/21 13:22:26;;;;;;;5.07;3.70;;;;;;;;;;4776573;30;20537;-84
2024/03/21 13:25:32;;;;;;;4.97;3.60;;;;;;;;;;4776784;30;20533;-84
2024/03/21 13:28:37;;;;;;;8.33;4.33;;;;;;;;;;4775853;30;20648;-83
2024/03/21 13:31:40;;;;;;;7.00;3.70;;;;;;;;;;4774428;30;20217;-81
2024/03/21 13:34:48;;;;;;;5.10;3.30;;;;;;;;;;4774188;30;20194;-82
2024/03/21 13:37:52;;;;;;;5.07;3.30;;;;;;;;;;4774856;30;20190;-82
2024/03/21 13:40:57;;;;;;;6.10;3.50;;;;;;;;;;4775571;30;20229;-81
2024/03/21 13:44:02;;;;;;;4.43;4.00;;;;;;;;;;4775953;30;20186;-83
2024/03/21 13:47:07;;;;;;;6.63;3.90;;;;;;;;;;4774762;30;20195;-82
2024/03/21 13:50:11;;;;;;;5.57;4.17;;;;;;;;;;4774790;30;20222;-82
2024/03/21 13:53:16;;;;;;;5.93;4.30;;;;;;;;;;4775747;30;20190;-82
2024/03/21 13:56:20;;;;;;;7.00;4.63;;;;;;;;;;4775763;30;20542;-84
2024/03/21 13:59:24;;;;;;;4.87;4.10;;;;;;;;;;4775137;30;20198;-84
2024/03/21 14:02:33;;;;;;;7.10;3.90;;;;;;;;;;4764501;30;20214;-84
2024/03/21 14:05:37;;;;;;;3.30;3.00;;;;;;;;;;4774939;30;20195;-84
2024/03/21 14:08:41;;;;;;;7.23;3.97;;;;;;;;;;4775736;30;20190;-84
2024/03/21 14:11:45;;;;;;;5.13;3.40;;;;;;;;;;4783430;30;20222;-84
2024/03/21 14:14:50;;;;;;;3.17;2.63;;;;;;;;;;4763773;30;20553;-84
2024/03/21 14:17:54;;;;;;;4.87;3.23;;;;;;;;;;4764122;30;20764;-84
2024/03/21 14:21:00;;;;;;;3.53;3.23;;;;;;;;;;4773836;30;20230;-84
2024/03/21 14:24:05;;;;;;;8.17;4.90;;;;;;;;;;4775130;30;20190;-84
2024/03/21 14:27:09;;;;;;;6.57;4.93;;;;;;;;;;4764414;30;20198;-84
2024/03/21 14:30:13;;;;;;;5.70;5.03;;;;;;;;;;4774196;30;20707;-84
2024/03/21 14:33:19;;;;;;;8.30;5.90;;;;;;;;;;4773908;30;20186;-84
2024/03/21 14:36:23;;;;;;;7.23;6.07;;;;;;;;;;4774088;30;20194;-85
2024/03/21 14:39:29;;;;;;;7.80;6.10;;;;;;;;;;4775980;30;20194;-85
2024/03/21 14:42:37;;;;;;;11.43;6.83;;;;;;;;;;4754826;30;20190;-86
2024/03/21 14:45:44;;;;;;;11.17;7.80;;;;;;;;;;4775085;30;20194;-85
2024/03/21 14:48:48;;;;;;;11.20;7.57;;;;;;;;;;4765315;30;20190;-85
2024/03/21 14:51:54;;;;;;;10.77;8.00;;;;;;;;;;4775097;30;20222;-84
2024/03/21 14:55:00;;;;;;;9.60;7.77;;;;;;;;;;4744423;30;20190;-85
2024/03/21 14:58:04;;;;;;;8.80;7.40;;;;;;;;;;4774720;30;20199;-85
2024/03/21 15:01:08;;;;;;;9.47;6.97;;;;;;;;;;4772839;30;20225;-87
2024/03/21 15:04:12;;;;;;;11.20;7.20;;;;;;;;;;4772062;30;20198;-84
2024/03/21 15:07:16;;;;;;;10.43;7.30;;;;;;;;;;4773459;30;20186;-85
2024/03/21 15:10:21;;;;;;;9.10;6.97;;;;;;;;;;4781405;30;20229;-85
2024/03/21 15:13:26;;;;;;;7.30;6.60;;;;;;;;;;4785327;30;20182;-82
2024/03/21 15:16:33;;;;;;;9.43;7.00;;;;;;;;;;4773640;30;20266;-83
2024/03/21 15:19:38;;;;;;;10.33;6.73;;;;;;;;;;4773766;30;20218;-83
2024/03/21 15:22:43;;;;;;;13.90;7.37;;;;;;;;;;4784835;30;20178;-83
2024/03/21 15:25:48;;;;;;;13.07;7.20;;;;;;;;;;4784424;30;20645;-83
2024/03/21 15:28:52;;;;;;;10.70;7.77;;;;;;;;;;4796541;30;20174;-84
2024/03/21 15:31:57;;;;;;;9.50;7.50;;;;;;;;;;4773635;30;20210;-85
2024/03/21 15:35:01;;;;;;;10.07;8.27;;;;;;;;;;4773483;30;20186;-85
2024/03/21 15:38:05;;;;;;;10.87;7.97;;;;;;;;;;4773892;30;20190;-86
2024/03/21 15:41:09;;;;;;;9.47;7.90;;;;;;;;;;4772896;30;20221;-84
2024/03/21 15:44:13;;;;;;;10.77;8.57;;;;;;;;;;4773927;30;20191;-86
2024/03/21 15:47:17;;;;;;;11.80;9.67;;;;;;;;;;4774229;30;20191;-86
2024/03/21 15:50:22;;;;;;;14.00;9.00;;;;;;;;;;4773927;30;20225;-86
2024/03/21 15:53:26;;;;;;;12.73;10.03;;;;;;;;;;4773847;30;20538;-84
2024/03/21 15:56:30;;;;;;;14.30;10.90;;;;;;;;;;4774287;30;20198;-85
2024/03/21 15:59:34;;;;;;;18.80;10.37;;;;;;;;;;4773505;30;20236;-86
2024/03/21 16:02:39;;;;;;;21.57;12.43;;;;;;;;;;4773880;30;20213;-86
2024/03/21 16:05:47;;;;;;;17.20;11.90;;;;;;;;;;4773571;30;20207;-85
2024/03/21 16:08:52;;;;;;;20.97;12.40;;;;;;;;;;4772995;30;20213;-85
2024/03/21 16:11:56;;;;;;;18.40;12.37;;;;;;;;;;4773546;30;20245;-86
2024/03/21 16:15:01;;;;;;;17.10;13.03;;;;;;;;;;4774597;30;20541;-87
2024/03/21 16:18:05;;;;;;;17.87;13.57;;;;;;;;;;4763946;30;20193;-87
2024/03/21 16:21:09;;;;;;;23.17;13.50;;;;;;;;;;4764413;30;20252;-87
2024/03/21 16:24:13;;;;;;;21.07;13.47;;;;;;;;;;4774044;30;20194;-86
2024/03/21 16:27:18;;;;;;;18.70;13.20;;;;;;;;;;4764353;30;20205;-88
2024/03/21 16:30:27;;;;;;;19.80;12.73;;;;;;;;;;4776020;30;20245;-86
2024/03/21 16:33:32;;;;;;;18.93;13.10;;;;;;;;;;4775983;30;20241;-87
2024/03/21 16:36:36;;;;;;;16.67;13.33;;;;;;;;;;4775742;30;20209;-86
2024/03/21 16:39:40;;;;;;;17.90;12.27;;;;;;;;;;4776463;30;20229;-87
2024/03/21 16:42:46;;;;;;;13.83;9.90;;;;;;;;;;4774692;30;20557;-87
2024/03/21 16:45:50;;;;;;;13.37;10.47;;;;;;;;;;4775143;30;20202;-87
2024/03/21 16:48:54;;;;;;;14.03;11.10;;;;;;;;;;4774405;30;20266;-86
2024/03/21 16:51:58;;;;;;;19.63;13.67;;;;;;;;;;4774748;30;20580;-87
2024/03/21 16:55:03;;;;;;;22.87;14.80;;;;;;;;;;4774223;30;20202;-87
2024/03/21 16:58:07;;;;;;;21.50;13.37;;;;;;;;;;4763626;30;20217;-87
2024/03/21 17:01:11;;;;;;;21.47;15.07;;;;;;;;;;4774057;30;20247;-87
2024/03/21 17:04:16;;;;;;;23.17;14.93;;;;;;;;;;4773957;30;20206;-87
2024/03/21 17:07:20;;;;;;;20.77;15.30;;;;;;;;;;4763412;30;20190;-87
2024/03/21 17:10:24;;;;;;;18.47;13.83;;;;;;;;;;4773305;30;20232;-86
2024/03/21 17:13:28;;;;;;;22.57;15.43;;;;;;;;;;4773979;30;20221;-87
2024/03/21 17:16:35;;;;;;;22.80;13.70;;;;;;;;;;4774170;30;20201;-88
2024/03/21 17:19:39;;;;;;;18.20;12.37;;;;;;;;;;4763048;30;20232;-87
2024/03/21 17:22:44;;;;;;;23.03;14.90;;;;;;;;;;4774148;30;20572;-86
2024/03/21 17:25:49;;;;;;;21.10;14.50;;;;;;;;;;4773872;30;20193;-87
2024/03/21 17:28:53;;;;;;;16.80;12.60;;;;;;;;;;4783782;30;20656;-86
2024/03/21 17:31:58;;;;;;;20.20;12.57;;;;;;;;;;4763436;30;20240;-87
2024/03/21 17:35:02;;;;;;;16.80;12.80;;;;;;;;;;4773446;30;20197;-87
2024/03/21 17:38:06;;;;;;;15.07;11.80;;;;;;;;;;4773591;30;20198;-87
2024/03/21 17:41:11;;;;;;;15.87;12.77;;;;;;;;;;4772753;30;20228;-87
2024/03/21 17:44:15;;;;;;;20.57;13.60;;;;;;;;;;4773078;30;20197;-87
2024/03/21 17:47:19;;;;;;;16.83;12.40;;;;;;;;;;4773606;30;20197;-87
2024/03/21 17:50:24;;;;;;;15.57;12.37;;;;;;;;;;4773390;30;20584;-87
2024/03/21 17:53:29;;;;;;;15.30;12.37;;;;;;;;;;4773366;30;20233;-87
2024/03/21 17:56:34;;;;;;;16.53;12.23;;;;;;;;;;4763506;30;20552;-87
2024/03/21 17:59:40;;;;;;;16.20;12.50;;;;;;;;;;4773759;30;20604;-86
2024/03/21 18:02:46;;;;;;;17.10;12.57;;;;;;;;;;4773663;30;20193;-87
2024/03/21 18:05:52;;;;;;;17.67;12.40;;;;;;;;;;4773718;30;20201;-86
2024/03/21 18:08:57;;;;;;;15.13;11.63;;;;;;;;;;4774073;30;20197;-86
2024/03/21 18:12:01;;;;;;;15.40;12.13;;;;;;;;;;4772547;30;20229;-88
2024/03/21 18:15:06;;;;;;;17.13;12.90;;;;;;;;;;4772932;30;20274;-87
2024/03/21 18:18:11;;;;;;;19.00;13.17;;;;;;;;;;4772581;30;20193;-86
2024/03/21 18:21:17;;;;;;;16.10;12.10;;;;;;;;;;4761965;30;20237;-86
2024/03/21 18:24:21;;;;;;;20.63;14.50;;;;;;;;;;4774200;30;20644;-87
2024/03/21 18:27:27;;;;;;;20.50;14.07;;;;;;;;;;4762644;30;20223;-87
2024/03/21 18:30:51;;;;;;;19.33;14.67;;;;;;;;;;4771600;30;20236;-88
2024/03/21 18:33:56;;;;;;;21.77;15.10;;;;;;;;;;4772287;30;20242;-88
2024/03/21 18:37:00;;;;;;;18.43;14.57;;;;;;;;;;4762562;30;20197;-86